Home > Products > Valid Products > TAF

000
FTUS44 KLZK 250700 AAA
TAFHOT
TAF AMD
KHOT 250702Z 2507/2606 00000KT 4SM BR SKC
      TEMPO 2509/2513 2SM BR SCT003
     FM251600 26006KT P6SM SCT250
     FM260000 00000KT P6SM SCT250=



000
FTUS44 KLZK 250500
TAFLIT
TAF
KLIT 250532Z 2506/2606 24004KT P6SM SKC
     FM251700 27008KT P6SM SCT250
     FM260000 00000KT P6SM SCT250=



000
FTUS44 KLZK 250500
TAFHRO
TAF
KHRO 250532Z 2506/2606 20005KT P6SM SCT250
      TEMPO 2509/2513 4SM BR
     FM251700 30006KT P6SM SCT250
     FM260000 12003KT P6SM SCT250=



000
FTUS44 KLZK 250500
TAFHOT
TAF
KHOT 250532Z 2506/2606 00000KT P6SM SCT250
      TEMPO 2509/2513 2SM BR SCT003
     FM251600 26006KT P6SM SCT250
     FM260000 00000KT P6SM SCT250=



000
FTUS44 KLZK 250500
TAFPBF
TAF
KPBF 250532Z 2506/2606 20003KT P6SM SKC
     FM251500 25007KT P6SM SCT250
     FM260000 22003KT P6SM SCT250=



000
FTUS44 KLZK 242300
TAFLIT
TAF
KLIT 242320Z 2500/2524 22004KT P6SM SCT250
     FM251800 27008KT P6SM SCT250=



000
FTUS44 KLZK 242300
TAFPBF
TAF
KPBF 242320Z 2500/2524 22004KT P6SM SCT250
     FM252000 27007KT P6SM SCT250=



000
FTUS44 KLZK 242300
TAFHOT
TAF
KHOT 242320Z 2500/2524 22004KT P6SM SCT250
      TEMPO 2509/2513 2SM BR SCT003
     FM251800 27006KT P6SM SCT250=



000
FTUS44 KLZK 242300
TAFHRO
TAF
KHRO 242320Z 2500/2524 24004KT P6SM SCT250
      TEMPO 2509/2513 4SM BR
     FM251800 31006KT P6SM SCT250=



000
FTUS44 KLZK 241700
TAFLIT
TAF
KLIT 241720Z 2418/2518 25005KT P6SM SCT250
     FM250000 21003KT P6SM SCT250
     FM251500 25006KT P6SM SCT250=



000
FTUS44 KLZK 241700
TAFPBF
TAF
KPBF 241720Z 2418/2518 25004KT P6SM SCT050
     FM250000 00000KT P6SM SCT250
     FM251500 25006KT P6SM SCT250=



000
FTUS44 KLZK 241700
TAFHOT
TAF
KHOT 241720Z 2418/2518 24004KT P6SM SCT250
     FM250000 00000KT P6SM SCT250
      TEMPO 2510/2514 1SM BR BKN003
     FM251500 25006KT P6SM SCT250=



000
FTUS44 KLZK 241700
TAFHRO
TAF
KHRO 241720Z 2418/2518 24007KT P6SM BKN040
     FM242000 23004KT P6SM SCT250
     FM250000 22004KT P6SM SCT250
     FM251500 25006KT P6SM SCT250=



000
FTUS44 KLZK 241100
TAFPBF
TAF
KPBF 241128Z 2412/2512 00000KT P6SM SKC
     FM241500 25004KT P6SM SCT050
     FM250000 00000KT P6SM SCT250=



000
FTUS44 KLZK 241100
TAFLIT
TAF
KLIT 241128Z 2412/2512 22003KT P6SM SKC
      TEMPO 2412/2413 5SM BR
     FM241500 25005KT P6SM SCT050
     FM250000 21003KT P6SM SCT250=



000
FTUS44 KLZK 241100
TAFHOT
TAF
KHOT 241128Z 2412/2512 00000KT P6SM SKC
      TEMPO 2412/2413 5SM BR
     FM241500 24004KT P6SM SCT050
     FM250000 00000KT P6SM SCT250=



000
FTUS44 KLZK 241100
TAFHRO
TAF
KHRO 241128Z 2412/2512 21003KT 5SM BR SCT250
      TEMPO 2412/2413 2SM BR
     FM241500 21007KT P6SM BKN250
     FM250000 22004KT P6SM SCT250=



000
FTUS44 KLZK 240500
TAFHOT
TAF
KHOT 240536Z 2406/2506 00000KT P6SM SKC
      TEMPO 2409/2413 4SM BR
     FM241500 23004KT P6SM SCT050
     FM250000 18003KT P6SM SCT250=



000
FTUS44 KLZK 240500
TAFLIT
TAF
KLIT 240536Z 2406/2506 00000KT P6SM SKC
      TEMPO 2409/2413 4SM BR
     FM241500 25005KT P6SM SCT050
     FM250000 19003KT P6SM SCT250=



000
FTUS44 KLZK 240500
TAFPBF
TAF
KPBF 240536Z 2406/2506 00000KT P6SM SKC
      TEMPO 2409/2413 4SM BR
     FM241500 23004KT P6SM SCT050
     FM250000 18003KT P6SM SCT250=



000
FTUS44 KLZK 240500
TAFHRO
TAF
KHRO 240536Z 2406/2506 00000KT P6SM SKC
      TEMPO 2409/2413 4SM BR
     FM241500 21007KT P6SM SCT050
     FM250000 20004KT P6SM SCT250=



000
FTUS44 KLZK 232300
TAFPBF
TAF
KPBF 232320Z 2400/2424 VRB03KT P6SM SCT080 SCT250
      TEMPO 2409/2413 4SM BR
     FM241500 VRB04KT P6SM SCT050 SCT250=



000
FTUS44 KLZK 232300
TAFLIT
TAF
KLIT 232320Z 2400/2424 VRB03KT P6SM SCT100 BKN250
      TEMPO 2409/2413 4SM BR
     FM241500 VRB04KT P6SM SCT050 SCT250=



000
FTUS44 KLZK 232300
TAFHRO
TAF
KHRO 232320Z 2400/2424 VRB03KT P6SM SCT050 BKN090
      TEMPO 2409/2413 4SM BR
     FM241500 VRB06KT P6SM SCT050=



000
FTUS44 KLZK 232300
TAFHOT
TAF
KHOT 232320Z 2400/2424 VRB03KT P6SM SCT080 SCT250
      TEMPO 2409/2413 4SM BR
     FM241500 22004KT P6SM SCT050 SCT250=



000
FTUS44 KLZK 231700
TAFPBF
TAF
KPBF 231720Z 2318/2418 10005KT P6SM VCSH SCT150 OVC250
     FM232300 VRB03KT P6SM SCT080 SCT250
     FM240400 VRB03KT P6SM SCT250=



000
FTUS44 KLZK 231700
TAFHRO
TAF
KHRO 231720Z 2318/2418 14006KT P6SM VCSH SCT080 OVC150
     FM232100 17006KT P6SM SCT050 BKN100
     FM240300 VRB03KT P6SM SCT050
     FM241500 19006KT P6SM SCT050=



000
FTUS44 KLZK 231700
TAFHOT
TAF
KHOT 231720Z 2318/2418 13005KT P6SM VCSH SCT150 OVC250
     FM232100 VRB03KT P6SM SCT080 SCT250
     FM240200 VRB03KT P6SM SCT250=



000
FTUS44 KLZK 231700
TAFLIT
TAF
KLIT 231720Z 2318/2418 10005KT P6SM VCSH SCT150 OVC250
     FM232200 VRB03KT P6SM SCT080 SCT250
     FM240300 VRB03KT P6SM SCT250=



000
FTUS44 KLZK 231100
TAFLIT
TAF
KLIT 231128Z 2312/2412 05003KT P6SM BKN250
     FM231400 04005KT P6SM SCT100 OVC250
     FM240000 00000KT P6SM SCT250=



000
FTUS44 KLZK 231100
TAFHRO
TAF
KHRO 231128Z 2312/2412 13005KT P6SM OVC250
     FM231400 15006KT P6SM VCSH SCT100 OVC250
     FM240000 18003KT P6SM SCT250=



000
FTUS44 KLZK 231100
TAFHOT
TAF
KHOT 231128Z 2312/2412 00000KT P6SM OVC250
     FM231400 10005KT P6SM VCSH SCT100 OVC250
     FM240000 00000KT P6SM SCT250=



000
FTUS44 KLZK 231100
TAFPBF
TAF
KPBF 231128Z 2312/2412 36003KT P6SM OVC250
     FM231400 05005KT P6SM SCT100 OVC250
     FM240000 00000KT P6SM SCT250=



000
FTUS44 KLZK 230500
TAFPBF
TAF
KPBF 230536Z 2306/2406 36003KT P6SM OVC250
     FM231400 06006KT P6SM SCT150 OVC250
     FM240000 00000KT P6SM SCT250=



000
FTUS44 KLZK 230500
TAFLIT
TAF
KLIT 230536Z 2306/2406 00000KT P6SM BKN250
     FM231300 07006KT P6SM SCT150 OVC250
     FM240000 00000KT P6SM SCT250=



000
FTUS44 KLZK 230500
TAFHRO
TAF
KHRO 230536Z 2306/2406 13004KT P6SM OVC250
     FM231400 15006KT P6SM SCT150 OVC250
     FM240000 16003KT P6SM SCT250=



000
FTUS44 KLZK 230500
TAFHOT
TAF
KHOT 230536Z 2306/2406 00000KT P6SM OVC250
      TEMPO 2310/2314 4SM BR
     FM231400 10005KT P6SM SCT150 OVC250
     FM240000 00000KT P6SM SCT250=



000
FTUS44 KLZK 222300
TAFHOT
TAF
KHOT 222320Z 2300/2324 09006KT P6SM SKC
     FM230600 VRB03KT P6SM SCT250
      TEMPO 2310/2314 4SM BR
     FM231400 10006KT P6SM SCT150 BKN250=



000
FTUS44 KLZK 222300
TAFLIT
TAF
KLIT 222320Z 2300/2324 VRB05KT P6SM SCT250
     FM231200 05006KT P6SM SCT150 BKN250=



000
FTUS44 KLZK 222300
TAFHRO
TAF
KHRO 222320Z 2300/2324 VRB04KT P6SM SCT250
     FM231200 15006KT P6SM SCT150 BKN250=



000
FTUS44 KLZK 222300
TAFPBF
TAF
KPBF 222320Z 2300/2324 VRB05KT P6SM SKC
     FM231200 05006KT P6SM SCT150 BKN250=



000
FTUS44 KLZK 221700
TAFHRO
TAF
KHRO 221720Z 2218/2318 12008KT P6SM SKC
     FM230300 13003KT P6SM SCT250
     FM231200 16006KT P6SM SCT150 BKN250=



000
FTUS44 KLZK 221700
TAFHOT
TAF
KHOT 221720Z 2218/2318 09008KT P6SM SKC
     FM230600 VRB03KT P6SM SCT250
      TEMPO 2310/2314 1SM BR
     FM231400 10006KT P6SM SCT150 BKN250=



000
FTUS44 KLZK 221700
TAFPBF
TAF
KPBF 221720Z 2218/2318 06008KT P6SM SKC
     FM230400 VRB03KT P6SM SCT250
     FM231200 05006KT P6SM SCT150 BKN250=



000
FTUS44 KLZK 221700
TAFLIT
TAF
KLIT 221720Z 2218/2318 05007KT P6SM SKC
     FM230400 VRB03KT P6SM SCT250
     FM231200 05006KT P6SM SCT150 BKN250=



000
FTUS44 KLZK 221700
TAFHRO
TAF
KHRO 221720Z 2218/2318 12008KT P6SM SKC
     FM230300 13003KT P6SM SCT250
     FM231200 16006KT P6SM SCT150 BKN250=



000
FTUS44 KLZK 221700
TAFHOT
TAF
KHOT 221720Z 2218/2318 09008KT P6SM SKC
     FM230600 VRB03KT P6SM SCT250
      TEMPO 2310/2314 1SM BR
     FM231400 10006KT P6SM SCT150 BKN250=



000
FTUS44 KLZK 221700
TAFPBF
TAF
KPBF 221720Z 2218/2318 06008KT P6SM SKC
     FM230400 VRB03KT P6SM SCT250
     FM231200 05006KT P6SM SCT150 BKN250=



000
FTUS44 KLZK 221700
TAFLIT
TAF
KLIT 221720Z 2218/2318 05007KT P6SM SKC
     FM230400 VRB03KT P6SM SCT250
     FM231200 05006KT P6SM SCT150 BKN250=



000
FTUS44 KLZK 221300 AAA
TAFHOT
TAF AMD
KHOT 221329Z 2213/2312 VRB04KT P6SM SKC
     FM230000 08003KT P6SM SCT250=



000
FTUS44 KLZK 221300 AAA
TAFPBF
TAF AMD
KPBF 221315Z 2213/2312 04005KT P6SM SKC
     FM221500 05009KT P6SM SKC
     FM230000 05003KT P6SM SCT250=



000
FTUS44 KLZK 221300 AAA
TAFLIT
TAF AMD
KLIT 221315Z 2213/2312 07005KT P6SM SKC
     FM221500 06008KT P6SM SKC
     FM230000 06003KT P6SM SCT250=



000
FTUS44 KLZK 221100
TAFHOT
TAF
KHOT 221135Z 2212/2312 00000KT 3SM BR BKN003
      TEMPO 2212/2215 1/4SM FG VV001
     FM221500 09008KT P6SM SKC
     FM230000 08003KT P6SM SCT250=



000
FTUS44 KLZK 221100
TAFLIT
TAF
KLIT 221135Z 2212/2312 05005KT P6SM SKC
      TEMPO 2212/2214 3SM BR
     FM221500 06008KT P6SM SKC
     FM230000 06003KT P6SM SCT250=



000
FTUS44 KLZK 221100
TAFHRO
TAF
KHRO 221135Z 2212/2312 12006KT P6SM SKC
     FM221500 12009KT P6SM SKC
     FM230000 13003KT P6SM BKN250=



000
FTUS44 KLZK 221100
TAFPBF
TAF
KPBF 221135Z 2212/2312 03004KT P6SM SKC
      TEMPO 2212/2214 3SM BR
     FM221500 05009KT P6SM SKC
     FM230000 05003KT P6SM SCT250=



    US Dept of Commerce
    National Oceanic and Atmospheric Administration
    National Weather Service
    1325 East West Highway
    Silver Spring, MD 20910
    Page Author: NWS Internet Services Team
Disclaimer
Information Quality
Credits
Glossary
Privacy Policy
Freedom of Information Act (FOIA)
About Us
Career Opportunities